Time;durP1;ratioP1;P1;durP2;ratioP2;P2;SDS_P1;SDS_P2;PMS_P1;PMS_P2;Temp;Humidity;BMP_temperature;BMP_pressure;BME280_temperature;BME280_humidity;BME280_pressure;Samples;Min_cycle;Max_cycle;Signal;HPM_P1;HPM_P2
2023/09/17 00:00:58;;;;;;;18.02;13.65;;;14.00;99.90;;;;;;4997751;28;20033;-87
2023/09/17 00:03:25;;;;;;;18.42;13.88;;;14.00;99.90;;;;;;5013844;28;20042;-86
2023/09/17 00:05:52;;;;;;;15.13;12.80;;;14.00;99.90;;;;;;4997957;28;20037;-87
2023/09/17 00:08:19;;;;;;;19.15;13.63;;;14.00;99.90;;;;;;4997638;28;20183;-86
2023/09/17 00:10:45;;;;;;;20.25;13.77;;;14.00;99.90;;;;;;4998007;28;20483;-86
2023/09/17 00:13:13;;;;;;;18.33;13.27;;;13.90;99.90;;;;;;5013840;28;20038;-87
2023/09/17 00:15:39;;;;;;;17.00;13.23;;;13.90;99.90;;;;;;4997582;28;20096;-86
2023/09/17 00:18:06;;;;;;;18.23;13.50;;;13.90;99.90;;;;;;4997553;28;20513;-86
2023/09/17 00:20:33;;;;;;;25.58;13.77;;;13.90;99.90;;;;;;4998079;28;20034;-86
2023/09/17 00:23:03;;;;;;;19.52;13.98;;;13.90;99.90;;;;;;4997412;28;20042;-86
2023/09/17 00:25:30;;;;;;;18.95;13.70;;;13.80;99.90;;;;;;4978650;28;20388;-86
2023/09/17 00:27:58;;;;;;;18.55;13.73;;;13.90;99.90;;;;;;4994250;28;20507;-86
2023/09/17 00:30:26;;;;;;;18.35;12.80;;;13.80;99.90;;;;;;4994224;28;20042;-86
2023/09/17 00:32:52;;;;;;;17.67;12.90;;;13.80;99.90;;;;;;5010603;28;20077;-86
2023/09/17 00:35:19;;;;;;;19.23;13.80;;;13.80;99.90;;;;;;4993877;28;20140;-87
2023/09/17 00:37:46;;;;;;;17.08;13.32;;;13.80;99.90;;;;;;4980872;28;20069;-86
2023/09/17 00:40:15;;;;;;;18.05;12.90;;;13.70;99.90;;;;;;5014136;28;20060;-86
2023/09/17 00:42:42;;;;;;;18.83;13.65;;;13.70;99.90;;;;;;4998516;28;20140;-87
2023/09/17 00:45:11;;;;;;;19.50;14.38;;;13.70;99.90;;;;;;4997828;28;20077;-87
2023/09/17 00:47:41;;;;;;;17.70;14.02;;;13.70;99.90;;;;;;4997952;28;20053;-86
2023/09/17 00:50:10;;;;;;;19.33;15.23;;;13.70;99.90;;;;;;4997762;28;20550;-87
2023/09/17 00:52:38;;;;;;;18.52;14.35;;;13.70;99.90;;;;;;4997678;28;20046;-86
2023/09/17 00:55:06;;;;;;;21.95;15.02;;;13.70;99.90;;;;;;4982234;28;20133;-86
2023/09/17 00:57:34;;;;;;;19.50;15.00;;;13.70;99.90;;;;;;4997793;28;20042;-86
2023/09/17 01:00:02;;;;;;;19.83;14.38;;;13.80;99.90;;;;;;4982202;28;20038;-86
2023/09/17 01:02:29;;;;;;;20.25;15.23;;;13.80;99.90;;;;;;4982005;28;20101;-87
2023/09/17 01:04:56;;;;;;;22.30;15.35;;;13.70;99.90;;;;;;5012681;28;20038;-87
2023/09/17 01:07:23;;;;;;;18.27;13.65;;;13.70;99.90;;;;;;5000922;28;20042;-87
2023/09/17 01:09:50;;;;;;;21.15;15.30;;;13.70;99.90;;;;;;5001037;28;20383;-87
2023/09/17 01:12:20;;;;;;;21.25;14.80;;;13.80;99.90;;;;;;5016793;28;20057;-87
2023/09/17 01:14:47;;;;;;;22.52;15.32;;;13.70;99.90;;;;;;5000648;28;20486;-87
2023/09/17 01:17:14;;;;;;;22.02;15.60;;;13.80;99.90;;;;;;5016673;28;20060;-88
2023/09/17 01:19:42;;;;;;;22.42;15.65;;;13.70;99.90;;;;;;5017379;28;20497;-88
2023/09/17 01:22:12;;;;;;;22.38;15.43;;;13.70;99.90;;;;;;5017229;28;20482;-88
2023/09/17 01:24:48;;;;;;;20.23;15.13;;;13.70;99.90;;;;;;5017292;28;20490;-87
2023/09/17 01:27:18;;;;;;;25.70;15.20;;;13.70;99.90;;;;;;5017010;28;20041;-88
2023/09/17 01:29:48;;;;;;;23.17;14.85;;;13.70;99.90;;;;;;5017170;28;20069;-87
2023/09/17 01:32:16;;;;;;;23.90;15.13;;;13.70;99.90;;;;;;5001284;28;20045;-87
2023/09/17 01:34:44;;;;;;;22.50;15.30;;;13.70;99.90;;;;;;5016398;28;20044;-87
2023/09/17 01:37:18;;;;;;;19.85;15.02;;;13.70;99.90;;;;;;4981586;28;20454;-87
2023/09/17 01:39:56;;;;;;;22.77;15.52;;;13.70;99.90;;;;;;4997224;28;20406;-87
2023/09/17 01:42:26;;;;;;;23.15;15.82;;;13.70;99.90;;;;;;4997143;28;20045;-87
2023/09/17 01:44:55;;;;;;;19.50;14.80;;;13.70;99.90;;;;;;4981972;28;20041;-87
2023/09/17 01:47:23;;;;;;;21.38;14.95;;;13.70;99.90;;;;;;5014129;28;20139;-87
2023/09/17 01:49:51;;;;;;;19.85;14.50;;;13.70;99.90;;;;;;4999791;28;20446;-87
2023/09/17 01:52:22;;;;;;;20.42;13.55;;;13.70;99.90;;;;;;5000302;28;20478;-87
2023/09/17 01:54:50;;;;;;;17.77;14.48;;;13.70;99.90;;;;;;5001052;28;20143;-87
2023/09/17 01:57:16;;;;;;;19.52;14.32;;;13.70;99.90;;;;;;5000342;28;20042;-87
2023/09/17 01:59:43;;;;;;;21.13;15.27;;;13.70;99.90;;;;;;5000261;28;20129;-87
2023/09/17 02:02:10;;;;;;;20.85;14.90;;;13.70;99.90;;;;;;5000557;28;20053;-87
2023/09/17 02:04:36;;;;;;;20.00;14.25;;;13.70;99.90;;;;;;5016031;28;20070;-88
2023/09/17 02:07:04;;;;;;;22.40;14.63;;;13.70;99.90;;;;;;5000276;28;20133;-88
2023/09/17 02:09:30;;;;;;;22.25;15.32;;;13.70;99.90;;;;;;5015928;28;20046;-87
2023/09/17 02:11:57;;;;;;;19.25;14.68;;;13.70;99.90;;;;;;5000274;28;20141;-87
2023/09/17 02:14:24;;;;;;;21.60;14.77;;;13.70;99.90;;;;;;5000401;28;20045;-87
2023/09/17 02:16:51;;;;;;;23.33;16.92;;;13.70;99.90;;;;;;5000002;28;20061;-88
2023/09/17 02:19:17;;;;;;;24.33;16.00;;;13.70;99.90;;;;;;4997668;28;20048;-88
2023/09/17 02:21:44;;;;;;;22.63;15.27;;;13.80;99.90;;;;;;4980959;28;20495;-88
2023/09/17 02:24:11;;;;;;;21.17;15.88;;;13.80;99.90;;;;;;4980449;28;20042;-87
2023/09/17 02:26:38;;;;;;;25.77;16.17;;;13.80;99.90;;;;;;4980668;28;20138;-87
2023/09/17 02:29:06;;;;;;;22.15;16.63;;;13.80;99.90;;;;;;4996512;28;20046;-87
2023/09/17 02:31:33;;;;;;;22.35;16.48;;;13.70;99.90;;;;;;5012126;28;20042;-87
2023/09/17 02:33:59;;;;;;;24.75;16.65;;;13.80;99.90;;;;;;4980712;28;20814;-88
2023/09/17 02:36:26;;;;;;;21.98;15.75;;;13.80;99.90;;;;;;4980297;28;20124;-88
2023/09/17 02:38:53;;;;;;;22.65;16.38;;;13.80;99.90;;;;;;4980097;28;20038;-87
2023/09/17 02:41:19;;;;;;;22.20;16.55;;;13.80;99.90;;;;;;4980359;28;20061;-88
2023/09/17 02:43:46;;;;;;;22.08;16.23;;;13.80;99.90;;;;;;4995950;28;20408;-87
2023/09/17 02:46:13;;;;;;;22.63;16.42;;;13.80;99.90;;;;;;5011974;28;20402;-87
2023/09/17 02:48:39;;;;;;;25.20;16.08;;;13.90;99.90;;;;;;4979913;28;20590;-87
2023/09/17 02:51:06;;;;;;;22.02;15.40;;;13.80;99.90;;;;;;4979919;28;20145;-86
2023/09/17 02:53:33;;;;;;;24.20;15.93;;;13.90;99.90;;;;;;4979835;28;20372;-87
2023/09/17 02:56:00;;;;;;;20.27;15.02;;;13.90;99.90;;;;;;4996017;28;20121;-87
2023/09/17 02:58:26;;;;;;;21.20;15.45;;;13.90;99.90;;;;;;4997014;28;20041;-87
2023/09/17 03:00:53;;;;;;;23.38;16.45;;;13.90;99.90;;;;;;5015226;28;20029;-87
2023/09/17 03:03:20;;;;;;;22.42;16.13;;;13.90;99.90;;;;;;5015469;28;20096;-87
2023/09/17 03:05:47;;;;;;;24.67;16.25;;;14.00;99.90;;;;;;5015077;28;20124;-87
2023/09/17 03:08:14;;;;;;;22.88;16.10;;;14.00;99.90;;;;;;4999307;28;20482;-87
2023/09/17 03:10:44;;;;;;;23.05;16.52;;;14.00;99.90;;;;;;5012823;28;20550;-87
2023/09/17 03:13:12;;;;;;;23.42;17.02;;;14.10;99.90;;;;;;4999556;28;20478;-87
2023/09/17 03:15:39;;;;;;;24.05;17.15;;;14.20;99.90;;;;;;4998908;28;20038;-87
2023/09/17 03:18:12;;;;;;;22.95;16.40;;;14.20;99.90;;;;;;4999080;28;20465;-88
2023/09/17 03:20:40;;;;;;;21.70;16.67;;;14.20;99.90;;;;;;4998738;28;20038;-87
2023/09/17 03:23:06;;;;;;;21.45;15.88;;;14.30;99.90;;;;;;4988617;28;20084;-87
2023/09/17 03:25:33;;;;;;;24.02;16.67;;;14.30;99.90;;;;;;4993224;28;20042;-87
2023/09/17 03:28:00;;;;;;;23.85;16.50;;;14.30;99.90;;;;;;4979254;28;20410;-87
2023/09/17 03:30:27;;;;;;;22.67;16.38;;;14.40;99.90;;;;;;4995520;28;20038;-88
2023/09/17 03:32:54;;;;;;;23.15;17.08;;;14.40;99.90;;;;;;4978845;28;20100;-87
2023/09/17 03:35:21;;;;;;;27.08;18.27;;;14.50;99.90;;;;;;4979164;28;20402;-87
2023/09/17 03:37:48;;;;;;;27.77;18.48;;;14.50;99.90;;;;;;4978898;28;20763;-87
2023/09/17 03:40:14;;;;;;;26.52;19.55;;;14.50;99.90;;;;;;4979833;28;20046;-87
2023/09/17 03:42:42;;;;;;;26.27;18.80;;;14.60;99.90;;;;;;4997669;28;20038;-87
2023/09/17 03:45:11;;;;;;;28.90;21.02;;;14.60;99.90;;;;;;5014417;28;20495;-87
2023/09/17 03:47:43;;;;;;;27.55;20.00;;;14.60;99.90;;;;;;5014361;28;20084;-87
2023/09/17 03:50:13;;;;;;;29.08;20.52;;;14.70;99.90;;;;;;5014472;28;20589;-87
2023/09/17 03:52:47;;;;;;;25.92;19.58;;;14.80;99.90;;;;;;5014102;28;20053;-87
2023/09/17 03:55:14;;;;;;;26.00;20.70;;;14.80;99.90;;;;;;5012743;28;20054;-87
2023/09/17 03:57:41;;;;;;;28.00;20.55;;;14.80;99.90;;;;;;5014171;28;20046;-87
2023/09/17 04:00:10;;;;;;;29.88;21.55;;;14.90;99.90;;;;;;4998390;28;20483;-87
2023/09/17 04:02:40;;;;;;;27.85;20.40;;;14.90;99.90;;;;;;5014236;28;20491;-88
2023/09/17 04:05:11;;;;;;;26.50;19.67;;;14.90;99.90;;;;;;4998605;28;20461;-88
2023/09/17 04:07:39;;;;;;;32.05;21.10;;;14.90;99.90;;;;;;4998569;28;20037;-88
2023/09/17 04:10:07;;;;;;;26.98;20.48;;;15.00;99.90;;;;;;4998103;28;20037;-87
2023/09/17 04:12:37;;;;;;;28.13;20.73;;;15.00;99.90;;;;;;4997967;28;20494;-87
2023/09/17 04:15:12;;;;;;;26.05;19.85;;;15.00;99.90;;;;;;5014116;28;20050;-87
2023/09/17 04:17:40;;;;;;;28.45;20.92;;;15.10;99.90;;;;;;5010400;28;20519;-88
2023/09/17 04:20:10;;;;;;;27.88;20.67;;;15.10;99.90;;;;;;4994911;28;20038;-87
2023/09/17 04:22:37;;;;;;;25.83;20.02;;;15.10;99.90;;;;;;4995003;28;20038;-88
2023/09/17 04:25:09;;;;;;;29.15;21.42;;;15.10;99.90;;;;;;5010644;28;20042;-87
2023/09/17 04:27:37;;;;;;;28.13;19.83;;;15.10;99.90;;;;;;4995686;28;20039;-87
2023/09/17 04:30:05;;;;;;;30.40;21.10;;;15.10;99.90;;;;;;4994623;28;20084;-88
2023/09/17 04:32:39;;;;;;;25.10;19.55;;;15.20;99.90;;;;;;4994657;28;20519;-88
2023/09/17 04:35:12;;;;;;;30.70;20.92;;;15.20;99.90;;;;;;5006709;28;20495;-88
2023/09/17 04:37:40;;;;;;;36.03;22.25;;;15.20;99.90;;;;;;4991211;28;20134;-88
2023/09/17 04:40:08;;;;;;;30.75;21.50;;;15.20;99.90;;;;;;4991474;28;20043;-87
2023/09/17 04:42:36;;;;;;;27.83;20.80;;;15.20;99.90;;;;;;4990799;28;20050;-87
2023/09/17 04:45:19;;;;;;;31.77;21.83;;;15.20;99.90;;;;;;4991411;28;20082;-87
2023/09/17 04:47:48;;;;;;;30.05;22.00;;;15.50;99.90;;;;;;4990852;28;20126;-88
2023/09/17 04:50:15;;;;;;;32.15;22.77;;;15.30;99.90;;;;;;4959984;28;20042;-88
2023/09/17 04:52:41;;;;;;;30.58;21.77;;;15.30;99.90;;;;;;4975385;28;20055;-88
2023/09/17 04:55:08;;;;;;;33.40;22.30;;;15.30;99.90;;;;;;4975145;28;20039;-87
2023/09/17 04:57:35;;;;;;;33.53;21.58;;;15.40;99.90;;;;;;4959218;28;20043;-87
2023/09/17 05:00:10;;;;;;;31.50;22.40;;;15.40;99.90;;;;;;4959082;28;20042;-88
2023/09/17 05:02:41;;;;;;;28.67;22.42;;;15.30;99.90;;;;;;4961240;28;20039;-88
2023/09/17 05:05:09;;;;;;;29.67;22.08;;;15.40;99.90;;;;;;4991173;28;20035;-88
2023/09/17 05:07:39;;;;;;;28.77;21.00;;;15.30;99.90;;;;;;4959687;28;20588;-88
2023/09/17 05:10:09;;;;;;;33.53;22.45;;;15.40;99.90;;;;;;4974587;28;20046;-88
2023/09/17 05:12:35;;;;;;;29.40;21.70;;;15.40;99.90;;;;;;4974706;28;20043;-87
2023/09/17 05:15:03;;;;;;;33.55;21.80;;;15.40;99.90;;;;;;4990540;28;20122;-88
2023/09/17 05:17:30;;;;;;;30.75;21.90;;;15.30;99.90;;;;;;4994375;28;20128;-87
2023/09/17 05:19:56;;;;;;;27.88;21.38;;;15.30;99.90;;;;;;5009425;28;20487;-88
2023/09/17 05:22:23;;;;;;;30.33;22.27;;;15.30;99.90;;;;;;4994433;28;20045;-88
2023/09/17 05:24:50;;;;;;;27.25;21.05;;;15.30;99.90;;;;;;5013504;28;20046;-88
2023/09/17 05:27:16;;;;;;;29.98;21.45;;;15.30;99.90;;;;;;5013853;28;20053;-88
2023/09/17 05:29:46;;;;;;;28.48;20.90;;;15.30;99.90;;;;;;5013656;28;20121;-87
2023/09/17 05:32:13;;;;;;;28.65;19.92;;;15.30;99.90;;;;;;4997671;28;20042;-88
2023/09/17 05:34:40;;;;;;;31.65;21.38;;;15.30;99.90;;;;;;4997546;28;20053;-88
2023/09/17 05:37:07;;;;;;;27.38;20.05;;;15.30;99.90;;;;;;5029327;28;20522;-87
2023/09/17 05:39:34;;;;;;;27.75;20.80;;;15.30;99.90;;;;;;5013479;28;20039;-87
2023/09/17 05:42:01;;;;;;;28.25;20.25;;;15.40;99.90;;;;;;4996574;28;20145;-86
2023/09/17 05:44:28;;;;;;;30.27;20.55;;;15.40;99.90;;;;;;4997140;28;20038;-87
2023/09/17 05:46:54;;;;;;;25.58;19.70;;;15.40;99.90;;;;;;4996835;28;20042;-88
2023/09/17 05:49:21;;;;;;;26.85;20.65;;;15.30;99.90;;;;;;5005824;28;20105;-88
2023/09/17 05:51:48;;;;;;;29.25;20.92;;;15.40;99.90;;;;;;4977791;28;20543;-87
2023/09/17 05:54:15;;;;;;;27.75;21.10;;;15.40;99.90;;;;;;4993262;28;20136;-87
2023/09/17 05:56:41;;;;;;;29.75;22.15;;;15.40;99.90;;;;;;4977448;28;20043;-87
2023/09/17 05:59:08;;;;;;;30.70;22.50;;;15.40;99.90;;;;;;4977812;28;20077;-87
2023/09/17 06:01:38;;;;;;;31.02;23.00;;;15.40;99.90;;;;;;4996694;28;20038;-87
2023/09/17 06:04:05;;;;;;;33.60;22.77;;;15.50;99.90;;;;;;4996302;28;20748;-87
2023/09/17 06:06:51;;;;;;;32.00;24.08;;;15.50;99.90;;;;;;4993850;28;20042;-87
2023/09/17 06:09:17;;;;;;;32.15;22.70;;;15.50;99.90;;;;;;4994434;28;20133;-87
2023/09/17 06:11:44;;;;;;;30.60;22.63;;;15.60;99.90;;;;;;4992235;28;20154;-87
2023/09/17 06:14:11;;;;;;;33.05;24.13;;;15.60;99.90;;;;;;4977850;28;20035;-87
2023/09/17 06:16:37;;;;;;;33.13;24.10;;;15.60;99.90;;;;;;4998416;28;20054;-87
2023/09/17 06:19:05;;;;;;;29.38;22.30;;;15.60;99.90;;;;;;5000003;28;20095;-90
2023/09/17 06:21:32;;;;;;;32.92;23.55;;;15.60;99.90;;;;;;4988310;28;20066;-90
2023/09/17 06:23:59;;;;;;;31.95;24.17;;;15.70;99.90;;;;;;4980858;28;20475;-90
2023/09/17 06:26:26;;;;;;;34.08;23.95;;;15.70;99.90;;;;;;4981396;28;20049;-90
2023/09/17 06:28:52;;;;;;;32.15;24.67;;;15.70;99.90;;;;;;4981374;28;20038;-91
2023/09/17 06:31:19;;;;;;;35.17;26.48;;;15.80;99.90;;;;;;4980782;28;20045;-91
2023/09/17 06:33:46;;;;;;;35.58;24.88;;;15.80;99.90;;;;;;4997264;28;20050;-92
2023/09/17 06:36:13;;;;;;;34.90;24.77;;;15.80;99.90;;;;;;4994564;28;20096;-91
2023/09/17 06:38:40;;;;;;;32.15;24.27;;;15.90;99.90;;;;;;4980643;28;20136;-88
2023/09/17 06:41:07;;;;;;;39.95;24.35;;;15.70;99.90;;;;;;4981996;28;20043;-88
2023/09/17 06:43:34;;;;;;;32.78;24.33;;;15.90;99.90;;;;;;4994318;28;20041;-89
2023/09/17 06:46:00;;;;;;;32.38;24.63;;;16.00;99.90;;;;;;5013173;28;20041;-87
2023/09/17 06:48:27;;;;;;;36.08;25.10;;;16.10;99.90;;;;;;4998936;28;20068;-87
2023/09/17 06:50:54;;;;;;;34.88;23.70;;;16.10;99.90;;;;;;4998765;28;20084;-87
2023/09/17 06:53:21;;;;;;;31.45;23.35;;;16.10;99.90;;;;;;4998264;28;20569;-86
2023/09/17 06:55:47;;;;;;;30.98;23.58;;;16.20;99.90;;;;;;4998931;28;20041;-87
2023/09/17 06:58:16;;;;;;;31.95;23.25;;;16.20;99.90;;;;;;5014701;28;20052;-86
2023/09/17 07:00:44;;;;;;;27.65;21.75;;;16.30;99.90;;;;;;4998461;28;20100;-86
2023/09/17 07:03:10;;;;;;;31.08;22.92;;;16.30;99.90;;;;;;5014927;28;20041;-86
2023/09/17 07:05:37;;;;;;;30.10;22.27;;;16.30;99.90;;;;;;4999065;28;20041;-86
2023/09/17 07:08:04;;;;;;;27.92;21.88;;;16.40;99.90;;;;;;5014449;28;20044;-86
2023/09/17 07:10:32;;;;;;;31.42;23.02;;;16.40;99.90;;;;;;4998770;28;20529;-86
2023/09/17 07:12:59;;;;;;;33.13;21.55;;;16.40;99.90;;;;;;5015338;28;20053;-86
2023/09/17 07:15:25;;;;;;;28.23;22.35;;;16.40;99.90;;;;;;5014467;28;20041;-86
2023/09/17 07:17:54;;;;;;;28.55;21.75;;;16.50;99.90;;;;;;4998380;28;20045;-86
2023/09/17 07:20:21;;;;;;;26.63;21.33;;;16.60;99.90;;;;;;4997901;28;20525;-86
2023/09/17 07:22:48;;;;;;;27.33;21.45;;;16.60;99.90;;;;;;4998244;28;20121;-87
2023/09/17 07:25:15;;;;;;;33.10;21.05;;;16.70;99.90;;;;;;5030054;28;20038;-86
2023/09/17 07:27:41;;;;;;;28.80;21.20;;;16.70;99.90;;;;;;5014651;28;20037;-85
2023/09/17 07:30:08;;;;;;;30.20;22.02;;;16.80;99.90;;;;;;4997850;28;20048;-86
2023/09/17 07:32:36;;;;;;;29.40;20.63;;;16.90;99.90;;;;;;4998145;28;20129;-85
2023/09/17 07:35:05;;;;;;;26.08;20.58;;;17.10;99.90;;;;;;4998276;28;20041;-85
2023/09/17 07:37:32;;;;;;;26.48;21.20;;;17.20;99.90;;;;;;5013289;28;20046;-85
2023/09/17 07:40:04;;;;;;;27.35;20.95;;;17.30;99.90;;;;;;4998002;28;20041;-86
2023/09/17 07:42:31;;;;;;;27.58;20.30;;;17.40;99.90;;;;;;4981324;28;20054;-85
2023/09/17 07:44:58;;;;;;;29.48;21.20;;;17.50;99.90;;;;;;4994161;28;20096;-85
2023/09/17 07:47:24;;;;;;;30.95;20.60;;;17.50;99.90;;;;;;4977276;28;20046;-85
2023/09/17 07:49:51;;;;;;;28.40;21.67;;;17.60;99.90;;;;;;4978661;28;20049;-86
2023/09/17 07:52:18;;;;;;;28.05;21.70;;;17.60;99.90;;;;;;4994056;28;20104;-85
2023/09/17 07:54:44;;;;;;;28.05;21.50;;;17.60;99.90;;;;;;4978486;28;20038;-86
2023/09/17 07:57:15;;;;;;;24.65;19.55;;;17.70;99.90;;;;;;4977666;28;20129;-86
2023/09/17 07:59:52;;;;;;;26.50;20.95;;;17.80;99.90;;;;;;4994644;28;20049;-86
2023/09/17 08:02:19;;;;;;;26.08;18.55;;;18.00;99.90;;;;;;4977816;28;20128;-85
2023/09/17 08:04:46;;;;;;;24.00;17.95;;;18.20;99.90;;;;;;4994359;28;20042;-85
2023/09/17 08:07:19;;;;;;;25.70;18.13;;;18.30;99.90;;;;;;4986353;28;20401;-85
2023/09/17 08:13:10;;;;;;;22.80;18.35;;;18.30;99.90;;;;;;5029571;28;20399;-86
2023/09/17 08:15:37;;;;;;;22.85;18.45;;;18.30;99.90;;;;;;4997650;28;20053;-86
2023/09/17 08:18:05;;;;;;;24.80;17.33;;;18.30;99.90;;;;;;5013059;28;20085;-86
2023/09/17 08:20:32;;;;;;;24.02;17.88;;;18.30;99.90;;;;;;5013285;28;20084;-86
2023/09/17 08:22:59;;;;;;;23.58;18.38;;;18.30;99.90;;;;;;4997515;28;20049;-86
2023/09/17 08:25:26;;;;;;;23.52;18.85;;;18.40;99.90;;;;;;4997120;28;20038;-86
2023/09/17 08:27:53;;;;;;;27.23;18.65;;;18.50;99.90;;;;;;4997415;28;20048;-85
2023/09/17 08:30:20;;;;;;;23.17;18.88;;;18.60;99.90;;;;;;4997252;28;20053;-85
2023/09/17 08:32:47;;;;;;;24.73;18.02;;;18.70;99.90;;;;;;4997189;28;20050;-86
2023/09/17 08:35:14;;;;;;;23.15;17.52;;;18.90;99.90;;;;;;5013245;28;20037;-86
2023/09/17 08:37:48;;;;;;;23.02;17.90;;;18.90;99.90;;;;;;4997225;28;20077;-86
2023/09/17 08:40:18;;;;;;;25.08;18.20;;;19.10;99.90;;;;;;5012934;28;20080;-86
2023/09/17 08:42:48;;;;;;;22.80;17.15;;;19.10;99.90;;;;;;5013045;28;20398;-85
2023/09/17 08:45:15;;;;;;;22.17;16.98;;;19.10;99.90;;;;;;5013451;28;20037;-85
2023/09/17 08:47:42;;;;;;;22.75;16.20;;;19.10;99.90;;;;;;5013689;28;20042;-86
2023/09/17 08:50:09;;;;;;;20.73;15.35;;;19.10;99.90;;;;;;4997280;28;20049;-86
2023/09/17 08:52:42;;;;;;;20.95;15.77;;;19.10;99.90;;;;;;4996856;28;20045;-85
2023/09/17 08:55:10;;;;;;;20.15;15.57;;;19.10;99.90;;;;;;5004130;28;20046;-86
2023/09/17 08:57:39;;;;;;;19.33;15.73;;;19.10;99.90;;;;;;4978159;28;20042;-86
2023/09/17 09:00:10;;;;;;;20.85;15.15;;;19.20;99.90;;;;;;4997585;28;20034;-86
2023/09/17 09:02:54;;;;;;;19.98;15.02;;;19.20;99.90;;;;;;4997052;28;20487;-86
2023/09/17 09:05:25;;;;;;;18.38;14.35;;;19.20;99.90;;;;;;4997150;28;20074;-86
2023/09/17 09:07:52;;;;;;;18.30;14.57;;;19.20;99.90;;;;;;4997883;28;20046;-86
2023/09/17 09:10:21;;;;;;;20.50;14.27;;;19.30;99.90;;;;;;4997481;28;20127;-86
2023/09/17 09:12:48;;;;;;;17.95;14.18;;;19.30;99.90;;;;;;4997346;28;20034;-86
2023/09/17 09:15:14;;;;;;;19.23;13.60;;;19.40;99.90;;;;;;4981191;28;20129;-86
2023/09/17 09:17:42;;;;;;;19.35;13.75;;;19.40;99.90;;;;;;4996603;28;20133;-85
2023/09/17 09:20:10;;;;;;;17.42;13.25;;;19.40;99.90;;;;;;4997242;28;20046;-86
2023/09/17 09:22:38;;;;;;;15.32;12.77;;;19.50;99.90;;;;;;4997064;28;20038;-85
2023/09/17 09:25:07;;;;;;;17.95;11.57;;;19.50;99.90;;;;;;4997288;28;20125;-86
2023/09/17 09:27:34;;;;;;;16.40;11.90;;;19.50;99.90;;;;;;4996946;28;20053;-85
2023/09/17 09:30:09;;;;;;;13.75;10.18;;;19.60;99.90;;;;;;4981356;28;20403;-86
2023/09/17 09:32:37;;;;;;;14.10;9.63;;;19.60;99.90;;;;;;4996545;28;20042;-87
2023/09/17 09:35:05;;;;;;;13.60;10.05;;;19.70;99.90;;;;;;4996958;28;20042;-86
2023/09/17 09:37:34;;;;;;;17.42;10.40;;;19.80;99.90;;;;;;4984932;28;20125;-87
2023/09/17 09:40:02;;;;;;;15.88;10.60;;;20.00;99.90;;;;;;5015778;28;20038;-86
2023/09/17 09:42:30;;;;;;;13.73;8.80;;;20.20;99.90;;;;;;5031924;28;20041;-86
2023/09/17 09:44:57;;;;;;;13.23;9.93;;;20.50;99.90;;;;;;5000270;28;20034;-86
2023/09/17 09:47:24;;;;;;;12.77;8.82;;;20.60;99.90;;;;;;5011190;28;20049;-86
2023/09/17 09:49:51;;;;;;;13.40;9.10;;;20.50;99.90;;;;;;4996498;28;20561;-86
2023/09/17 09:52:21;;;;;;;15.07;9.93;;;20.50;99.90;;;;;;4996729;28;20038;-87
2023/09/17 09:54:47;;;;;;;11.52;8.75;;;20.30;99.90;;;;;;4996019;28;20054;-86
2023/09/17 09:57:19;;;;;;;13.98;9.38;;;20.30;99.90;;;;;;4996569;28;20460;-87
2023/09/17 09:59:50;;;;;;;11.95;8.93;;;20.30;99.90;;;;;;4995932;28;20491;-87
2023/09/17 10:02:20;;;;;;;12.23;8.23;;;20.30;99.90;;;;;;4996540;28;20034;-87
2023/09/17 10:04:48;;;;;;;15.95;8.82;;;20.20;99.90;;;;;;4980331;28;20038;-86
2023/09/17 10:07:16;;;;;;;11.73;7.97;;;20.20;99.90;;;;;;4980190;28;20078;-86
2023/09/17 10:09:43;;;;;;;11.07;7.80;;;20.20;99.90;;;;;;4993858;28;20525;-86
2023/09/17 10:12:10;;;;;;;12.98;7.95;;;20.10;99.90;;;;;;5015547;28;20061;-87
2023/09/17 10:14:38;;;;;;;12.40;8.57;;;20.00;99.90;;;;;;4999833;28;20201;-86
2023/09/17 10:17:06;;;;;;;12.63;9.13;;;20.00;99.90;;;;;;5015676;28;20136;-87
2023/09/17 10:19:34;;;;;;;11.55;8.70;;;19.80;99.90;;;;;;5006229;28;20081;-86
2023/09/17 10:22:07;;;;;;;12.98;9.02;;;19.80;99.90;;;;;;4995967;28;20042;-86
2023/09/17 10:24:36;;;;;;;15.98;9.73;;;19.70;99.90;;;;;;4996155;28;20038;-85
2023/09/17 10:27:05;;;;;;;13.52;10.25;;;19.60;99.90;;;;;;4995806;28;20034;-86
2023/09/17 10:29:34;;;;;;;15.20;10.52;;;19.60;99.90;;;;;;4995460;28;20104;-85
2023/09/17 10:32:03;;;;;;;15.75;10.50;;;19.50;99.90;;;;;;4995926;28;20081;-86
2023/09/17 10:34:35;;;;;;;16.40;9.70;;;19.50;99.90;;;;;;5011811;28;20046;-86
2023/09/17 10:37:06;;;;;;;13.98;9.52;;;19.50;99.90;;;;;;4995860;28;20038;-86
2023/09/17 10:39:33;;;;;;;11.90;9.07;;;19.60;99.90;;;;;;5011611;28;20050;-86
2023/09/17 10:42:02;;;;;;;13.45;9.50;;;19.70;99.90;;;;;;4995506;28;20100;-86
2023/09/17 10:44:30;;;;;;;11.40;8.45;;;19.80;99.90;;;;;;4995797;28;20035;-86
2023/09/17 10:47:01;;;;;;;12.45;9.35;;;19.90;99.90;;;;;;4995100;28;20038;-86
2023/09/17 10:49:31;;;;;;;11.38;8.75;;;19.90;99.90;;;;;;4995464;28;20451;-86
2023/09/17 10:51:58;;;;;;;13.48;9.18;;;20.00;99.90;;;;;;4993630;28;20407;-86
2023/09/17 10:54:25;;;;;;;12.23;9.15;;;20.00;99.90;;;;;;4998728;28;20862;-86
2023/09/17 10:56:52;;;;;;;13.07;9.68;;;20.00;99.90;;;;;;4998576;28;20149;-86
2023/09/17 10:59:20;;;;;;;11.27;8.82;;;19.90;99.90;;;;;;4998661;28;20037;-86
2023/09/17 11:01:49;;;;;;;11.13;9.00;;;19.90;99.90;;;;;;5004990;28;20046;-86
2023/09/17 11:04:19;;;;;;;12.77;9.85;;;19.80;99.90;;;;;;4995236;28;20038;-86
2023/09/17 11:06:49;;;;;;;13.90;10.25;;;19.80;99.90;;;;;;4994954;28;20578;-86
2023/09/17 11:09:17;;;;;;;13.30;9.75;;;19.80;99.90;;;;;;4995125;28;20524;-86
2023/09/17 11:11:43;;;;;;;12.02;9.70;;;19.80;99.90;;;;;;4984010;28;20482;-86
2023/09/17 11:14:29;;;;;;;13.00;9.13;;;19.80;99.90;;;;;;5014816;28;20133;-86
2023/09/17 11:16:57;;;;;;;14.30;9.93;;;19.90;99.90;;;;;;5013944;28;20446;-86
2023/09/17 11:19:24;;;;;;;14.45;10.90;;;20.00;99.90;;;;;;5014863;28;20048;-86
2023/09/17 11:22:08;;;;;;;17.20;11.93;;;20.10;99.90;;;;;;4997946;28;20038;-86
2023/09/17 11:24:36;;;;;;;14.20;11.48;;;20.20;99.90;;;;;;5014394;28;20129;-86
2023/09/17 11:27:12;;;;;;;15.80;11.77;;;20.40;99.90;;;;;;4998414;28;20049;-86
2023/09/17 11:29:40;;;;;;;15.85;12.10;;;20.70;99.90;;;;;;4999359;28;20046;-86
2023/09/17 11:32:07;;;;;;;16.95;11.95;;;20.90;99.90;;;;;;5013933;28;20481;-86
2023/09/17 11:34:36;;;;;;;15.18;11.32;;;21.20;99.90;;;;;;5013927;28;20541;-86
2023/09/17 11:37:06;;;;;;;15.98;11.32;;;21.40;99.90;;;;;;4998338;28;20049;-86
2023/09/17 11:39:38;;;;;;;14.85;11.43;;;21.50;99.90;;;;;;5014193;28;20409;-85
2023/09/17 11:42:12;;;;;;;14.43;11.32;;;21.70;99.90;;;;;;5029722;28;20556;-86
2023/09/17 11:44:43;;;;;;;17.38;12.32;;;21.80;99.90;;;;;;4998983;28;20376;-86
2023/09/17 11:47:12;;;;;;;15.18;12.05;;;21.70;99.90;;;;;;5013956;28;20137;-86
2023/09/17 11:49:40;;;;;;;15.10;11.90;;;21.60;99.90;;;;;;4997970;28;20037;-86
2023/09/17 11:52:11;;;;;;;13.52;10.70;;;21.50;99.90;;;;;;4997972;28;20042;-86
2023/09/17 11:54:50;;;;;;;13.73;10.48;;;21.50;99.90;;;;;;5013497;28;20041;-86
2023/09/17 11:57:25;;;;;;;13.95;10.45;;;21.40;99.90;;;;;;4997881;28;20442;-86
2023/09/17 11:59:51;;;;;;;13.90;10.87;;;21.50;99.90;;;;;;5013700;28;20096;-85
2023/09/17 12:02:19;;;;;;;16.60;10.93;;;21.50;99.90;;;;;;5013726;28;20049;-86
2023/09/17 12:04:46;;;;;;;16.60;10.85;;;21.50;99.90;;;;;;4990435;28;20043;-86
2023/09/17 12:07:13;;;;;;;15.07;9.90;;;21.60;99.90;;;;;;4993967;28;20384;-86
2023/09/17 12:10:00;;;;;;;14.30;10.63;;;21.70;99.90;;;;;;4978137;28;20045;-86
2023/09/17 12:12:29;;;;;;;14.70;10.20;;;21.80;99.90;;;;;;4994235;28;20049;-86
2023/09/17 12:14:56;;;;;;;15.32;10.00;;;21.80;99.90;;;;;;4978172;28;20046;-86
2023/09/17 12:17:23;;;;;;;15.15;10.05;;;21.90;99.90;;;;;;5000729;28;20474;-86
2023/09/17 12:19:59;;;;;;;12.63;9.85;;;21.90;99.90;;;;;;5013365;28;20048;-86
2023/09/17 12:22:26;;;;;;;16.00;10.80;;;21.90;99.90;;;;;;4998722;28;20073;-86
2023/09/17 12:25:05;;;;;;;14.60;11.05;;;21.90;99.90;;;;;;5013590;28;20076;-86
2023/09/17 12:27:45;;;;;;;13.18;10.43;;;21.90;99.90;;;;;;4995623;28;20088;-86
2023/09/17 12:30:16;;;;;;;15.10;11.00;;;22.00;99.90;;;;;;5009753;28;20046;-86
2023/09/17 12:32:43;;;;;;;14.88;11.25;;;22.00;99.90;;;;;;4993843;28;20125;-86
2023/09/17 12:35:10;;;;;;;15.23;11.13;;;22.10;99.90;;;;;;4993903;28;20077;-86
2023/09/17 12:37:36;;;;;;;15.23;10.95;;;22.20;99.90;;;;;;5009931;28;20093;-86